Time;durP1;ratioP1;P1;durP2;ratioP2;P2;SDS_P1;SDS_P2;PMS_P1;PMS_P2;Temp;Humidity;BMP_temperature;BMP_pressure;BME280_temperature;BME280_humidity;BME280_pressure;Samples;Min_cycle;Max_cycle;Signal;HPM_P1;HPM_P2
2023/10/19 00:00:44;;;;;;;18.65;9.52;;;;;;;8.70;100.00;99328.66;5047452;28;20021;-75
2023/10/19 00:03:11;;;;;;;21.17;8.85;;;;;;;8.71;100.00;99329.50;5041428;28;20047;-75
2023/10/19 00:05:38;;;;;;;14.20;8.30;;;;;;;8.70;100.00;99316.72;5031801;28;20029;-75
2023/10/19 00:08:14;;;;;;;15.77;8.85;;;;;;;8.62;100.00;99310.38;5048031;28;20061;-75
2023/10/19 00:10:45;;;;;;;18.23;9.65;;;;;;;8.65;100.00;99309.56;5043786;28;20490;-75
2023/10/19 00:13:11;;;;;;;16.90;8.27;;;;;;;8.63;100.00;99311.97;5048701;28;20542;-75
2023/10/19 00:16:10;;;;;;;16.55;8.77;;;;;;;8.65;100.00;99309.56;5046206;28;20033;-75
2023/10/19 00:18:27;;;;;;;17.02;9.48;;;;;;;8.76;100.00;99312.31;5047619;28;20116;-74
2023/10/19 00:21:10;;;;;;;16.60;8.90;;;;;;;8.72;100.00;99303.97;5045374;28;20111;-74
2023/10/19 00:23:36;;;;;;;19.23;10.13;;;;;;;8.69;100.00;99296.41;5043074;28;20020;-75
2023/10/19 00:26:24;;;;;;;16.90;10.10;;;;;;;8.72;100.00;99300.38;5044820;28;20032;-74
2023/10/19 00:28:55;;;;;;;20.85;10.63;;;;;;;8.72;100.00;99298.38;5044898;28;20124;-74
2023/10/19 00:31:21;;;;;;;16.50;10.27;;;;;;;8.79;100.00;99288.41;5044099;28;20402;-75
2023/10/19 00:33:47;;;;;;;15.27;9.02;;;;;;;8.74;100.00;99290.41;5039807;28;20021;-74
2023/10/19 00:36:15;;;;;;;16.05;9.35;;;;;;;8.74;100.00;99284.81;5026299;28;20143;-75
2023/10/19 00:38:51;;;;;;;17.85;10.85;;;;;;;8.68;100.00;99274.50;5038209;28;20025;-74
2023/10/19 00:41:24;;;;;;;15.30;8.35;;;;;;;8.72;100.00;99276.06;5043679;28;20032;-74
2023/10/19 00:43:50;;;;;;;18.98;8.82;;;;;;;8.76;100.00;99270.47;5043855;28;20060;-74
2023/10/19 00:48:49;;;;;;;16.67;9.50;;;;;;;8.78;100.00;99270.88;5039302;28;20382;-74
2023/10/19 00:54:26;;;;;;;16.63;9.60;;;;;;;8.79;100.00;99252.94;5041863;28;20033;-74
2023/10/19 00:56:52;;;;;;;13.43;8.68;;;;;;;8.88;100.00;99247.72;5046136;28;20043;-74
2023/10/19 00:59:22;;;;;;;16.48;9.27;;;;;;;8.87;100.00;99236.94;5046092;28;20033;-74
2023/10/19 01:01:53;;;;;;;15.80;8.07;;;;;;;8.80;100.00;99242.56;5025668;28;20537;-75
2023/10/19 01:04:23;;;;;;;15.80;9.82;;;;;;;8.81;100.00;99233.78;5043476;28;20044;-74
2023/10/19 01:07:11;;;;;;;14.57;8.82;;;;;;;8.87;100.00;99236.94;5037029;28;20507;-74
2023/10/19 01:09:38;;;;;;;13.30;8.00;;;;;;;8.94;100.00;99226.56;5038502;28;20027;-74
2023/10/19 01:15:07;;;;;;;13.55;7.95;;;;;;;8.89;100.00;99226.16;5045306;28;20047;-74
2023/10/19 01:17:39;;;;;;;16.67;8.15;;;;;;;8.90;100.00;99219.41;5046347;28;20028;-74
2023/10/19 01:20:55;;;;;;;13.75;8.85;;;;;;;8.88;100.00;99221.81;5041173;28;20602;-75
2023/10/19 01:31:07;;;;;;;14.90;8.02;;;;;;;8.97;100.00;99222.16;5039782;28;20039;-72
2023/10/19 01:33:34;;;;;;;15.90;9.52;;;;;;;8.98;100.00;99214.56;5027173;28;20021;-74
2023/10/19 01:36:14;;;;;;;15.45;9.38;;;;;;;8.94;100.00;99209.03;5025005;28;20138;-72
2023/10/19 01:38:40;;;;;;;17.10;10.15;;;;;;;9.06;100.00;99210.53;5039662;28;20021;-72
2023/10/19 01:41:27;;;;;;;13.75;9.38;;;;;;;9.03;100.00;99211.34;5027586;28;20095;-72
2023/10/19 01:43:53;;;;;;;18.17;9.15;;;;;;;9.04;100.00;99216.50;5044169;28;20037;-73
2023/10/19 01:46:35;;;;;;;14.45;8.77;;;;;;;9.06;100.00;99211.31;5025126;28;20039;-73
2023/10/19 01:49:03;;;;;;;17.05;9.18;;;;;;;9.11;100.00;99210.91;5044571;28;20033;-72
2023/10/19 01:51:32;;;;;;;15.98;9.82;;;;;;;9.08;100.00;99203.31;5023199;28;20037;-72
2023/10/19 01:53:58;;;;;;;18.55;10.43;;;;;;;9.06;100.00;99205.72;5042329;28;20028;-74
2023/10/19 01:56:24;;;;;;;13.13;8.60;;;;;;;9.09;100.00;99195.78;5036619;28;20028;-73
2023/10/19 01:58:54;;;;;;;17.95;9.93;;;;;;;9.10;100.00;99188.97;5046792;28;20029;-72
2023/10/19 02:01:20;;;;;;;15.57;9.75;;;;;;;9.17;100.00;99200.09;5043516;28;20039;-72
2023/10/19 02:03:47;;;;;;;12.90;8.32;;;;;;;9.15;100.00;99188.56;5043638;28;20120;-74
2023/10/19 02:06:19;;;;;;;14.82;10.43;;;;;;;9.15;100.00;99186.53;5024972;28;20036;-73
2023/10/19 02:08:56;;;;;;;16.73;10.20;;;;;;;9.19;100.00;99177.34;5043158;28;20497;-71
2023/10/19 02:11:22;;;;;;;15.15;9.55;;;;;;;9.20;100.00;99187.31;5040495;28;20032;-72
2023/10/19 02:14:00;;;;;;;19.48;10.20;;;;;;;9.24;100.00;99169.34;5047362;28;20079;-72
2023/10/19 02:16:29;;;;;;;17.95;10.70;;;;;;;9.24;100.00;99169.34;5040912;28;20030;-72
2023/10/19 02:18:55;;;;;;;19.25;11.10;;;;;;;9.21;100.00;99177.72;5040710;28;20124;-72
2023/10/19 02:21:27;;;;;;;19.23;9.65;;;;;;;9.18;100.00;99186.94;5045734;28;20109;-73
2023/10/19 02:23:52;;;;;;;15.87;9.70;;;;;;;9.21;100.00;99166.56;5038381;28;20116;-73
2023/10/19 02:26:31;;;;;;;14.95;8.68;;;;;;;9.23;100.00;99147.41;5044091;28;20385;-71
2023/10/19 02:28:58;;;;;;;17.00;10.23;;;;;;;9.30;100.00;99153.72;5047496;28;20056;-72
2023/10/19 02:31:24;;;;;;;19.77;12.18;;;;;;;9.20;100.00;99168.56;5041450;28;20394;-73
2023/10/19 02:34:00;;;;;;;14.98;10.25;;;;;;;9.22;100.00;99163.38;5046189;28;20474;-72
2023/10/19 02:36:30;;;;;;;13.55;9.80;;;;;;;9.23;100.00;99152.97;5019337;28;20036;-72
2023/10/19 02:39:07;;;;;;;21.38;12.73;;;;;;;9.35;100.00;99155.28;5042055;28;20044;-72
2023/10/19 02:41:36;;;;;;;17.77;10.75;;;;;;;9.32;100.00;99148.53;5046817;28;20021;-71
2023/10/19 02:47:05;;;;;;;21.95;12.25;;;;;;;9.37;100.00;99144.50;5020347;28;20037;-72
2023/10/19 02:49:31;;;;;;;17.73;10.80;;;;;;;9.37;100.00;99141.69;5041173;28;20021;-71
2023/10/19 02:52:03;;;;;;;18.17;11.48;;;;;;;9.42;100.00;99132.88;5034709;28;20029;-73
2023/10/19 02:54:32;;;;;;;21.48;11.90;;;;;;;9.42;100.00;99132.88;5042368;28;20036;-73
2023/10/19 02:56:58;;;;;;;20.50;13.23;;;;;;;9.45;100.00;99136.84;5038870;28;20037;-72
2023/10/19 02:59:25;;;;;;;19.67;11.80;;;;;;;9.44;100.00;99130.47;5040825;28;20025;-72
2023/10/19 03:04:39;;;;;;;22.67;14.73;;;;;;;9.52;100.00;99154.31;5044322;28;20030;-72
2023/10/19 03:07:05;;;;;;;16.77;11.13;;;;;;;9.38;100.00;99125.72;5044938;28;20045;-73
2023/10/19 03:09:36;;;;;;;22.45;13.43;;;;;;;9.52;100.00;99136.78;5026150;28;20033;-72
2023/10/19 03:12:05;;;;;;;21.10;12.30;;;;;;;9.45;100.00;99142.44;5025222;28;20453;-72
2023/10/19 03:14:31;;;;;;;22.52;11.73;;;;;;;9.42;100.00;99132.09;5022527;28;20060;-73
2023/10/19 03:16:59;;;;;;;20.23;12.23;;;;;;;9.55;100.00;99147.16;5036687;28;20110;-72
2023/10/19 03:19:25;;;;;;;19.83;11.95;;;;;;;9.56;100.00;99140.34;5026475;28;20032;-73
2023/10/19 03:21:50;;;;;;;19.38;12.15;;;;;;;9.56;100.00;99132.75;5029099;28;20132;-72
2023/10/19 03:24:35;;;;;;;24.63;13.20;;;;;;;9.53;100.00;99130.00;5028519;28;20036;-73
2023/10/19 03:27:01;;;;;;;21.83;13.63;;;;;;;9.65;100.00;99129.47;5026826;28;20052;-73
2023/10/19 03:29:31;;;;;;;23.20;13.50;;;;;;;9.60;100.00;99135.50;5042427;28;20029;-73
2023/10/19 03:31:58;;;;;;;20.92;12.80;;;;;;;9.61;100.00;99134.28;5026473;28;20040;-72
2023/10/19 03:34:24;;;;;;;19.60;11.45;;;;;;;9.60;100.00;99137.53;5047680;28;20028;-72
2023/10/19 03:36:54;;;;;;;20.50;12.75;;;;;;;9.68;100.00;99125.06;5028853;28;20494;-73
2023/10/19 03:39:21;;;;;;;19.90;11.88;;;;;;;9.69;100.00;99126.63;5046624;28;20025;-72
2023/10/19 03:41:46;;;;;;;21.52;12.30;;;;;;;9.82;100.00;99133.28;5045896;28;20402;-73
2023/10/19 03:44:34;;;;;;;18.27;12.05;;;;;;;9.76;100.00;99123.75;5038856;28;20029;-75
2023/10/19 03:47:14;;;;;;;18.10;11.10;;;;;;;9.75;100.00;99116.59;5026712;28;20471;-75
2023/10/19 03:49:40;;;;;;;17.23;12.07;;;;;;;9.84;100.00;99118.91;5041024;28;20475;-76
2023/10/19 03:54:42;;;;;;;19.48;12.77;;;;;;;9.93;100.00;99114.41;5047103;28;20037;-75
2023/10/19 03:57:12;;;;;;;22.23;13.40;;;;;;;9.90;100.00;99123.63;5049829;28;20043;-76
2023/10/19 03:59:41;;;;;;;24.80;14.88;;;;;;;9.94;100.00;99118.78;5028265;28;20037;-75
2023/10/19 04:02:14;;;;;;;21.98;14.27;;;;;;;9.96;100.00;99118.38;5045556;28;20033;-76
2023/10/19 04:04:43;;;;;;;;;;;;;;;9.95;100.00;99113.97;5031233;28;20051;-76
2023/10/19 04:07:21;;;;;;;23.77;14.88;;;;;;;10.03;100.00;99109.09;5028507;28;20007;-76
2023/10/19 04:12:35;;;;;;;27.02;16.23;;;;;;;10.09;100.00;99111.00;5025313;28;20040;-76
2023/10/19 04:17:42;;;;;;;24.33;15.98;;;;;;;10.13;100.00;99120.16;5021897;28;20037;-76
2023/10/19 04:20:30;;;;;;;29.17;16.70;;;;;;;10.09;100.00;99107.44;5028815;28;20084;-76
2023/10/19 04:22:54;;;;;;;25.48;16.65;;;;;;;10.11;100.00;99102.22;5021087;28;20041;-76
2023/10/19 04:25:20;;;;;;;26.60;16.65;;;;;;;10.20;100.00;99096.13;5022982;28;20509;-76
2023/10/19 04:27:46;;;;;;;26.92;16.17;;;;;;;10.24;100.00;99102.47;5026199;28;20478;-76
2023/10/19 04:30:16;;;;;;;34.30;18.60;;;;;;;10.28;100.00;99098.41;5020497;28;20040;-76
2023/10/19 04:32:46;;;;;;;28.23;18.52;;;;;;;10.34;100.00;99093.94;5018840;28;20026;-76
2023/10/19 04:35:21;;;;;;;31.90;17.23;;;;;;;10.31;100.00;99092.00;5017100;28;20041;-76
2023/10/19 04:37:53;;;;;;;30.83;18.73;;;;;;;10.40;100.00;99087.91;5017352;28;20033;-76
2023/10/19 04:40:19;;;;;;;30.30;17.27;;;;;;;10.21;100.00;99081.72;5019084;28;20037;-76
2023/10/19 04:42:46;;;;;;;32.55;19.08;;;;;;;10.47;100.00;99087.81;5022151;28;20046;-76
2023/10/19 04:45:12;;;;;;;32.50;21.38;;;;;;;10.50;100.00;99082.16;5020890;28;20414;-76
2023/10/19 04:47:38;;;;;;;31.70;20.10;;;;;;;10.50;100.00;99081.38;5017158;28;20119;-76
2023/10/19 04:50:08;;;;;;;30.70;18.77;;;;;;;10.46;100.00;99092.59;5024109;28;20037;-76
2023/10/19 04:52:33;;;;;;;34.50;19.00;;;;;;;10.47;100.00;99082.19;5024503;28;20033;-76
2023/10/19 04:54:59;;;;;;;33.40;20.60;;;;;;;10.60;100.00;99091.59;5018869;28;20040;-76
2023/10/19 04:57:25;;;;;;;34.83;21.63;;;;;;;10.61;100.00;99098.78;5019658;28;20033;-75
2023/10/19 04:59:51;;;;;;;34.80;20.38;;;;;;;10.61;100.00;99089.63;5022506;28;20026;-76
2023/10/19 05:02:16;;;;;;;36.20;19.40;;;;;;;10.64;100.00;99081.16;5022707;28;20039;-76
2023/10/19 05:04:43;;;;;;;36.47;21.48;;;;;;;10.74;100.00;99085.00;5017484;28;20026;-76
2023/10/19 05:07:14;;;;;;;35.67;19.58;;;;;;;10.70;100.00;99079.47;5034639;28;20417;-76
2023/10/19 05:09:40;;;;;;;34.35;20.20;;;;;;;10.66;100.00;99075.13;5035837;28;21192;-76
2023/10/19 05:12:09;;;;;;;39.22;18.98;;;;;;;10.69;100.00;99072.28;5039028;28;20132;-76
2023/10/19 05:14:35;;;;;;;34.92;20.02;;;;;;;10.80;100.00;99074.13;5018284;28;20106;-76
2023/10/19 05:17:04;;;;;;;35.83;18.83;;;;;;;10.88;100.00;99090.41;5034023;28;20041;-76
2023/10/19 05:19:30;;;;;;;36.28;20.38;;;;;;;10.85;100.00;99090.44;5039336;28;20504;-76
2023/10/19 05:21:56;;;;;;;36.58;19.83;;;;;;;10.81;100.00;99084.91;5037835;28;20040;-75
2023/10/19 05:24:21;;;;;;;32.78;18.98;;;;;;;10.90;100.00;99085.16;5034337;28;20467;-76
2023/10/19 05:26:47;;;;;;;39.53;20.42;;;;;;;10.93;100.00;99077.91;5038214;28;20033;-76
2023/10/19 05:29:13;;;;;;;34.15;19.05;;;;;;;10.93;100.00;99086.31;5025998;28;20076;-76
2023/10/19 05:31:38;;;;;;;37.15;20.77;;;;;;;10.99;100.00;99081.81;5036627;28;20036;-75
2023/10/19 05:34:04;;;;;;;37.15;20.25;;;;;;;10.94;100.00;99085.91;5024909;28;20022;-77
2023/10/19 05:36:29;;;;;;;37.00;19.98;;;;;;;10.99;100.00;99093.81;5036084;28;20029;-76
2023/10/19 05:38:55;;;;;;;35.72;19.83;;;;;;;11.04;100.00;99095.34;5020328;28;20066;-76
2023/10/19 05:41:21;;;;;;;31.27;18.15;;;;;;;10.98;100.00;99097.03;5037982;28;20037;-76
2023/10/19 05:43:46;;;;;;;35.47;19.40;;;;;;;10.97;100.00;99099.03;5035386;28;20021;-76
2023/10/19 05:46:13;;;;;;;37.35;18.75;;;;;;;11.06;100.00;99095.69;5012917;28;20432;-76
2023/10/19 05:48:39;;;;;;;31.90;17.95;;;;;;;10.99;100.00;99101.41;5030601;28;20528;-76
2023/10/19 05:51:04;;;;;;;36.00;19.50;;;;;;;11.01;100.00;99107.38;5023162;28;20025;-76
2023/10/19 05:53:30;;;;;;;31.10;17.55;;;;;;;10.97;100.00;99104.63;5038438;28;20453;-76
2023/10/19 05:55:55;;;;;;;35.70;19.00;;;;;;;11.04;100.00;99111.34;5036706;28;20024;-76
2023/10/19 05:58:20;;;;;;;28.02;16.80;;;;;;;11.01;100.00;99107.38;5030470;28;20035;-76
2023/10/19 06:00:46;;;;;;;37.60;18.40;;;;;;;11.12;100.00;99116.41;5026962;28;20040;-76
2023/10/19 06:03:11;;;;;;;38.15;18.75;;;;;;;11.11;100.00;99111.22;5007472;28;20030;-76
2023/10/19 06:05:37;;;;;;;34.65;18.75;;;;;;;11.16;100.00;99121.94;5020061;28;20082;-72
2023/10/19 06:08:08;;;;;;;34.45;18.58;;;;;;;11.15;100.00;99114.75;5031529;28;20499;-75
2023/10/19 06:10:39;;;;;;;32.47;16.85;;;;;;;11.07;100.00;99125.28;5030504;28;20163;-72
2023/10/19 06:13:04;;;;;;;29.90;17.13;;;;;;;11.22;100.00;99125.84;5036439;28;20035;-72
2023/10/19 06:15:31;;;;;;;28.50;16.40;;;;;;;11.10;100.00;99127.22;5030320;28;20030;-74
2023/10/19 06:17:56;;;;;;;34.45;16.88;;;;;;;11.09;100.00;99128.47;5020932;28;20028;-73
2023/10/19 06:20:24;;;;;;;29.92;17.10;;;;;;;11.10;100.00;99130.03;5038056;28;20090;-72
2023/10/19 06:23:03;;;;;;;30.10;16.33;;;;;;;11.21;100.00;99132.66;5037789;28;20075;-72
2023/10/19 06:25:29;;;;;;;35.55;17.20;;;;;;;11.23;100.00;99135.03;5018143;28;20048;-72
2023/10/19 06:27:57;;;;;;;31.73;17.33;;;;;;;11.21;100.00;99138.25;5036763;28;20024;-71
2023/10/19 06:30:23;;;;;;;31.88;16.80;;;;;;;11.27;100.00;99128.16;5019960;28;20033;-72
2023/10/19 06:32:55;;;;;;;34.88;18.05;;;;;;;11.34;100.00;99138.44;5042957;28;20092;-71
2023/10/19 06:35:22;;;;;;;33.70;17.65;;;;;;;11.36;100.00;99145.22;5020996;28;20028;-72
2023/10/19 06:37:48;;;;;;;30.80;15.80;;;;;;;11.22;100.00;99141.88;5045853;28;20044;-72
2023/10/19 06:40:14;;;;;;;33.40;16.35;;;;;;;11.32;100.00;99146.47;5046644;28;20372;-75
2023/10/19 06:42:41;;;;;;;32.78;15.75;;;;;;;11.37;100.00;99151.63;5044054;28;20474;-74
2023/10/19 06:45:07;;;;;;;33.92;16.42;;;;;;;11.37;100.00;99149.59;5027773;28;20094;-74
2023/10/19 06:47:37;;;;;;;30.65;16.40;;;;;;;11.41;100.00;99151.56;5029032;28;20033;-74
2023/10/19 06:50:07;;;;;;;30.50;16.45;;;;;;;11.41;100.00;99155.16;5047290;28;20501;-74
2023/10/19 06:52:32;;;;;;;26.83;15.50;;;;;;;11.40;100.00;99147.94;5042677;28;20433;-74
2023/10/19 06:54:57;;;;;;;27.83;12.93;;;;;;;11.38;100.00;99156.81;5023469;28;20091;-74
2023/10/19 06:57:23;;;;;;;29.38;15.73;;;;;;;11.42;100.00;99162.31;5028344;28;21295;-76
2023/10/19 06:59:48;;;;;;;23.92;13.73;;;;;;;11.45;100.00;99158.69;5046313;28;20139;-74
2023/10/19 07:02:14;;;;;;;28.85;14.80;;;;;;;11.50;100.00;99160.22;5022409;28;20508;-74
2023/10/19 07:04:39;;;;;;;27.60;15.27;;;;;;;11.56;100.00;99150.09;5027173;28;20044;-74
2023/10/19 07:07:04;;;;;;;30.52;15.63;;;;;;;11.54;100.00;99156.13;5045243;28;20075;-73
2023/10/19 07:09:30;;;;;;;24.60;13.35;;;;;;;11.37;100.00;99160.81;5026995;28;20153;-72
2023/10/19 07:11:56;;;;;;;27.63;12.73;;;;;;;11.46;100.00;99153.88;5047593;28;20040;-71
2023/10/19 07:14:22;;;;;;;24.90;13.07;;;;;;;11.67;100.00;99161.13;5044766;28;20530;-72
2023/10/19 07:16:50;;;;;;;28.98;14.43;;;;;;;11.72;100.00;99155.81;5042071;28;20039;-76
2023/10/19 07:19:15;;;;;;;26.77;14.50;;;;;;;11.70;100.00;99154.66;5042419;28;20376;-76
2023/10/19 07:21:42;;;;;;;26.15;13.60;;;;;;;11.77;100.00;99158.13;5029545;28;20741;-75
2023/10/19 07:24:10;;;;;;;27.75;13.90;;;;;;;11.85;100.00;99172.81;5048375;28;20412;-75
2023/10/19 07:26:43;;;;;;;23.35;12.93;;;;;;;11.73;100.00;99162.22;5042752;28;20027;-76
2023/10/19 07:29:10;;;;;;;26.02;13.52;;;;;;;11.90;100.00;99168.75;5044375;28;20060;-76
2023/10/19 07:31:35;;;;;;;27.30;13.23;;;;;;;11.82;100.00;99156.84;5046564;28;20029;-75
2023/10/19 07:34:01;;;;;;;26.85;14.00;;;;;;;11.90;100.00;99172.34;5045384;28;20079;-75
2023/10/19 07:36:26;;;;;;;22.40;12.32;;;;;;;11.95;100.00;99171.84;5045590;28;20043;-75
2023/10/19 07:38:51;;;;;;;28.90;13.45;;;;;;;11.98;100.00;99182.19;5025583;28;20502;-75
2023/10/19 07:41:17;;;;;;;21.85;12.43;;;;;;;11.92;100.00;99178.31;5027527;28;20094;-75
2023/10/19 07:43:46;;;;;;;29.23;12.63;;;;;;;12.04;100.00;99179.69;5045563;28;20056;-76
2023/10/19 07:46:12;;;;;;;23.58;10.10;;;;;;;12.06;100.00;99182.88;5044821;28;20536;-76
2023/10/19 07:48:38;;;;;;;31.08;12.93;;;;;;;12.13;100.00;99181.94;5029997;28;20036;-75
2023/10/19 07:51:03;;;;;;;21.63;11.23;;;;;;;11.93;100.00;99191.13;5030139;28;20029;-76
2023/10/19 07:53:30;;;;;;;22.77;11.32;;;;;;;12.08;100.00;99179.63;5039665;28;20025;-75
2023/10/19 07:55:57;;;;;;;24.17;11.35;;;;;;;12.15;100.00;99177.47;5030595;28;20028;-76
2023/10/19 07:58:22;;;;;;;22.48;11.18;;;;;;;12.20;100.00;99181.78;5047147;28;20037;-76
2023/10/19 08:00:47;;;;;;;25.75;11.23;;;;;;;12.22;100.00;99184.16;5038682;28;20114;-76
2023/10/19 08:03:15;;;;;;;26.58;12.20;;;;;;;12.22;100.00;99179.34;5041171;28;20060;-76
2023/10/19 08:05:41;;;;;;;15.90;9.77;;;;;;;12.30;100.00;99189.22;5043778;28;20478;-75
2023/10/19 08:08:06;;;;;;;21.08;11.23;;;;;;;12.34;100.00;99175.91;5041016;28;20056;-76
2023/10/19 08:10:34;;;;;;;23.33;10.07;;;;;;;12.37;100.00;99180.63;5039926;28;20118;-76
2023/10/19 08:12:59;;;;;;;25.48;11.48;;;;;;;12.27;100.00;99173.25;5042841;28;20506;-75
2023/10/19 08:15:26;;;;;;;23.88;10.23;;;;;;;12.43;100.00;99172.50;5025959;28;20080;-76
2023/10/19 08:17:53;;;;;;;24.42;10.35;;;;;;;12.44;100.00;99178.91;5042835;28;20171;-75
2023/10/19 08:20:30;;;;;;;25.20;12.00;;;;;;;12.49;100.00;99173.59;5044011;28;20828;-76
2023/10/19 08:22:59;;;;;;;25.25;10.25;;;;;;;12.46;100.00;99182.06;5039682;28;20359;-75
2023/10/19 08:25:28;;;;;;;22.83;10.75;;;;;;;12.58;100.00;99179.41;5040177;28;20450;-75
2023/10/19 08:27:56;;;;;;;22.58;10.38;;;;;;;12.60;100.00;99193.78;5040870;28;20494;-76
2023/10/19 08:30:22;;;;;;;19.70;10.02;;;;;;;12.58;100.00;99184.22;5025465;28;20033;-77
2023/10/19 08:32:48;;;;;;;20.40;9.82;;;;;;;12.69;100.00;99187.63;5046014;28;20063;-76
2023/10/19 08:35:18;;;;;;;23.02;10.23;;;;;;;12.76;100.00;99184.66;5045931;28;20560;-74
2023/10/19 08:37:45;;;;;;;16.15;9.80;;;;;;;12.74;100.00;99187.09;5045460;28;20111;-74
2023/10/19 08:40:15;;;;;;;19.85;9.63;;;;;;;12.80;100.00;99188.19;5045598;28;20060;-74
2023/10/19 08:42:50;;;;;;;18.92;9.25;;;;;;;12.70;100.00;99192.00;5048203;28;20032;-73
2023/10/19 08:45:16;;;;;;;15.10;8.15;;;;;;;12.84;100.00;99190.09;5042068;28;20040;-73
2023/10/19 08:47:57;;;;;;;18.52;10.57;;;;;;;12.88;100.00;99186.00;5037435;28;20029;-74
2023/10/19 08:50:28;;;;;;;18.08;8.48;;;;;;;12.88;100.00;99199.25;5044526;28;20047;-74
2023/10/19 08:52:56;;;;;;;17.70;8.38;;;;;;;12.83;100.00;99192.13;5027318;28;20025;-74
2023/10/19 08:55:21;;;;;;;21.90;10.23;;;;;;;12.88;100.00;99199.25;5039781;28;20033;-74
2023/10/19 08:57:52;;;;;;;14.38;8.13;;;;;;;12.88;100.00;99205.66;5047761;28;20048;-74
2023/10/19 09:00:18;;;;;;;13.05;7.85;;;;;;;12.98;100.00;99192.59;5041462;28;20481;-74
2023/10/19 09:02:47;;;;;;;19.60;9.48;;;;;;;12.98;100.00;99198.22;5027808;28;20037;-74
2023/10/19 09:05:22;;;;;;;18.90;9.20;;;;;;;13.08;100.00;99202.81;5046042;28;20039;-74
2023/10/19 09:07:54;;;;;;;23.25;9.13;;;;;;;13.08;100.00;99197.19;5033670;28;20088;-74
2023/10/19 09:10:26;;;;;;;18.50;8.23;;;;;;;13.19;100.00;99194.13;5047528;28;20043;-74
2023/10/19 09:13:04;;;;;;;20.88;8.15;;;;;;;13.17;100.00;99196.59;5026319;28;20332;-74
2023/10/19 09:15:32;;;;;;;17.80;9.48;;;;;;;13.17;100.00;99190.97;5040816;28;20028;-76
2023/10/19 09:17:58;;;;;;;19.25;8.75;;;;;;;13.28;100.00;99190.72;5025892;28;20550;-75
2023/10/19 09:20:29;;;;;;;14.82;8.65;;;;;;;13.26;100.00;99188.34;5040411;28;20036;-76
2023/10/19 09:22:56;;;;;;;17.85;8.38;;;;;;;13.23;100.00;99206.06;5042224;28;20029;-75
2023/10/19 09:25:22;;;;;;;19.98;9.32;;;;;;;13.29;100.00;99186.72;5035543;28;20033;-75
2023/10/19 09:27:48;;;;;;;16.10;8.05;;;;;;;13.38;100.00;99181.25;5040510;28;20029;-76
2023/10/19 09:30:18;;;;;;;16.25;8.35;;;;;;;13.32;100.00;99174.59;5045602;28;20079;-76
2023/10/19 09:32:46;;;;;;;21.13;9.20;;;;;;;13.49;100.00;99181.81;5037383;28;20025;-76
2023/10/19 09:35:15;;;;;;;16.02;9.60;;;;;;;13.51;100.00;99175.72;5023913;28;20060;-74
2023/10/19 09:37:41;;;;;;;19.00;7.93;;;;;;;13.47;100.00;99167.41;5039723;28;20548;-74
2023/10/19 09:40:12;;;;;;;22.85;9.32;;;;;;;13.60;100.00;99157.03;5028098;28;20039;-74
2023/10/19 09:42:45;;;;;;;18.38;8.77;;;;;;;13.73;100.00;99167.56;5040320;28;20082;-74
2023/10/19 09:45:12;;;;;;;14.23;8.00;;;;;;;13.67;100.00;99166.50;5039437;28;20037;-73
2023/10/19 09:47:45;;;;;;;18.65;8.90;;;;;;;13.77;100.00;99171.84;5045259;28;20048;-73
2023/10/19 09:50:11;;;;;;;15.38;9.30;;;;;;;13.85;100.00;99172.47;5041522;28;20040;-73
2023/10/19 09:52:38;;;;;;;15.60;8.50;;;;;;;13.91;100.00;99173.47;5028328;28;20029;-73
2023/10/19 09:55:13;;;;;;;13.38;8.07;;;;;;;14.00;100.00;99162.41;5037459;28;20614;-73
2023/10/19 09:57:48;;;;;;;11.02;6.55;;;;;;;13.96;100.00;99160.94;5040931;28;20040;-74
2023/10/19 10:00:14;;;;;;;16.35;7.95;;;;;;;14.08;100.00;99167.81;5041971;28;20493;-74
2023/10/19 10:02:42;;;;;;;16.17;7.20;;;;;;;14.20;100.00;99169.91;5028280;28;20041;-74
2023/10/19 10:05:42;;;;;;;18.63;7.65;;;;;;;14.26;100.00;99165.31;5041729;28;20524;-75
2023/10/19 10:08:22;;;;;;;17.50;7.47;;;;;;;14.23;100.00;99171.84;5042778;28;20075;-75
2023/10/19 10:10:51;;;;;;;13.55;6.38;;;;;;;14.21;100.00;99171.50;5028484;28;20040;-75
2023/10/19 10:13:30;;;;;;;17.58;8.85;;;;;;;14.27;100.00;99166.88;5051415;28;20037;-75
2023/10/19 10:16:06;;;;;;;16.13;7.18;;;;;;;14.37;100.00;99173.47;5040538;28;20386;-75
2023/10/19 10:18:32;;;;;;;14.00;6.35;;;;;;;14.54;100.00;99185.44;5046719;28;20120;-76
2023/10/19 10:21:11;;;;;;;13.30;6.90;;;;;;;14.52;100.00;99183.06;5044689;28;20028;-76
2023/10/19 10:23:47;;;;;;;18.88;7.78;;;;;;;14.66;100.00;99184.72;5053941;28;20539;-75
2023/10/19 10:26:13;;;;;;;17.17;7.60;;;;;;;14.51;100.00;99180.72;5044551;28;20029;-75
2023/10/19 10:28:40;;;;;;;19.85;6.72;;;;;;;14.68;100.00;99179.44;5049536;28;20756;-74
2023/10/19 10:31:21;;;;;;;13.70;6.13;;;;;;;14.86;100.00;99186.53;5042234;28;20068;-74
2023/10/19 10:33:51;;;;;;;15.65;6.70;;;;;;;14.76;100.00;99169.53;5043800;28;20106;-74
2023/10/19 10:36:19;;;;;;;13.25;5.45;;;;;;;14.72;100.00;99171.66;5034883;28;20075;-74
2023/10/19 10:38:50;;;;;;;8.30;3.00;;;;;;;16.09;100.00;99147.50;5024406;28;20063;-75
2023/10/19 10:41:27;;;;;;;8.98;4.85;;;;;;;16.65;100.00;99136.13;5029730;28;20025;-74
2023/10/19 10:43:55;;;;;;;9.20;4.82;;;;;;;15.70;100.00;99147.59;5047339;28;20510;-74
2023/10/19 10:46:22;;;;;;;12.10;4.65;;;;;;;15.38;100.00;99154.31;5043240;28;20083;-74
2023/10/19 10:48:48;;;;;;;14.80;5.43;;;;;;;15.34;100.00;99160.06;5044914;28;20100;-74
2023/10/19 10:51:31;;;;;;;13.05;5.57;;;;;;;15.26;100.00;99164.34;5039893;28;20132;-74
2023/10/19 10:53:57;;;;;;;12.20;5.82;;;;;;;15.53;100.00;99166.69;5046331;28;20429;-74
2023/10/19 10:56:23;;;;;;;13.23;5.93;;;;;;;15.80;100.00;99163.41;5046811;28;20474;-74
2023/10/19 10:58:50;;;;;;;9.68;5.75;;;;;;;16.00;100.00;99154.66;5042082;28;20043;-74
2023/10/19 11:01:27;;;;;;;14.15;5.18;;;;;;;16.33;100.00;99157.09;5036551;28;20024;-74
2023/10/19 11:04:05;;;;;;;8.15;4.97;;;;;;;16.42;100.00;99157.19;5044360;28;20044;-74
2023/10/19 11:06:31;;;;;;;8.77;4.55;;;;;;;16.52;100.00;99145.94;5045522;28;20048;-74
2023/10/19 11:08:56;;;;;;;6.07;3.72;;;;;;;16.42;100.00;99145.88;5050067;28;20032;-74
2023/10/19 11:11:21;;;;;;;6.70;3.50;;;;;;;16.34;100.00;99149.41;5045330;28;20025;-73
2023/10/19 11:13:47;;;;;;;13.40;4.00;;;;;;;16.46;100.00;99151.38;5051534;28;20386;-74
2023/10/19 11:16:22;;;;;;;4.43;2.88;;;;;;;16.24;100.00;99145.75;5050107;28;20112;-74
2023/10/19 11:18:49;;;;;;;4.05;2.63;;;;;;;16.17;100.00;99148.81;5029886;28;20029;-74
2023/10/19 11:21:15;;;;;;;3.97;2.30;;;;;;;15.99;100.00;99143.81;5041790;28;20036;-74
2023/10/19 11:23:48;;;;;;;8.90;3.03;;;;;;;16.03;100.00;99148.09;5040105;28;20041;-74
2023/10/19 11:26:15;;;;;;;;;;;;;;;15.93;100.00;99143.59;5044279;28;20282;-74
2023/10/19 11:28:50;;;;;;;6.68;2.53;;;;;;;16.00;100.00;99143.38;5040557;28;19940;-74
2023/10/19 11:31:22;;;;;;;5.72;2.65;;;;;;;16.00;100.00;99143.38;5042746;28;20044;-74
2023/10/19 11:33:48;;;;;;;4.82;1.95;;;;;;;16.08;100.00;99138.22;5044931;28;20029;-74
2023/10/19 11:36:15;;;;;;;4.63;2.75;;;;;;;16.23;100.00;99132.84;5038951;28;20025;-74
2023/10/19 11:38:45;;;;;;;6.38;2.17;;;;;;;16.31;100.00;99117.22;5038845;28;20067;-74
2023/10/19 11:41:13;;;;;;;7.28;1.95;;;;;;;16.33;100.00;99114.75;5019887;28;20037;-74
2023/10/19 11:43:39;;;;;;;11.80;3.63;;;;;;;16.27;100.00;99119.41;5037046;28;20132;-74
2023/10/19 11:46:05;;;;;;;8.77;2.15;;;;;;;16.24;100.00;99123.16;5043633;28;20060;-74
2023/10/19 11:48:35;;;;;;;8.95;2.67;;;;;;;16.26;100.00;99115.03;5039562;28;20490;-74
2023/10/19 11:51:03;;;;;;;7.38;2.47;;;;;;;16.29;100.00;99107.66;5036776;28;20047;-74
2023/10/19 11:53:33;;;;;;;6.35;2.60;;;;;;;16.26;100.00;99106.53;5037677;28;20506;-74
2023/10/19 11:56:00;;;;;;;7.07;2.67;;;;;;;16.22;100.00;99098.19;5041167;28;20504;-74